sensor_id;sensor_type;location;lat;lon;timestamp;temperature;humidity
25320;DHT22;13256;49.012;8.610;2023-04-04T00:02:32;2.40;99.90
25320;DHT22;13256;49.012;8.610;2023-04-04T00:05:04;2.30;99.90
25320;DHT22;13256;49.012;8.610;2023-04-04T00:07:31;2.30;99.90
25320;DHT22;13256;49.012;8.610;2023-04-04T00:10:09;2.30;99.90
25320;DHT22;13256;49.012;8.610;2023-04-04T00:12:36;2.30;99.90
25320;DHT22;13256;49.012;8.610;2023-04-04T00:15:03;2.30;99.90
25320;DHT22;13256;49.012;8.610;2023-04-04T00:17:30;2.20;99.90
25320;DHT22;13256;49.012;8.610;2023-04-04T00:20:04;2.20;99.90
25320;DHT22;13256;49.012;8.610;2023-04-04T00:22:34;2.10;99.90
25320;DHT22;13256;49.012;8.610;2023-04-04T00:25:01;2.10;99.90
25320;DHT22;13256;49.012;8.610;2023-04-04T00:27:38;2.00;99.90
25320;DHT22;13256;49.012;8.610;2023-04-04T00:30:07;2.00;99.90
25320;DHT22;13256;49.012;8.610;2023-04-04T00:32:36;1.90;99.90
25320;DHT22;13256;49.012;8.610;2023-04-04T00:35:07;1.90;99.90
25320;DHT22;13256;49.012;8.610;2023-04-04T00:37:33;1.90;99.90
25320;DHT22;13256;49.012;8.610;2023-04-04T00:40:07;1.90;99.90
25320;DHT22;13256;49.012;8.610;2023-04-04T00:42:34;1.90;99.90
25320;DHT22;13256;49.012;8.610;2023-04-04T00:45:01;1.90;99.90
25320;DHT22;13256;49.012;8.610;2023-04-04T00:47:29;1.90;99.90
25320;DHT22;13256;49.012;8.610;2023-04-04T00:49:56;1.90;99.90
25320;DHT22;13256;49.012;8.610;2023-04-04T00:52:25;1.90;99.90
25320;DHT22;13256;49.012;8.610;2023-04-04T00:54:54;1.80;99.90
25320;DHT22;13256;49.012;8.610;2023-04-04T00:57:23;1.80;99.90
25320;DHT22;13256;49.012;8.610;2023-04-04T00:59:50;1.80;99.90
25320;DHT22;13256;49.012;8.610;2023-04-04T01:02:17;1.80;99.90
25320;DHT22;13256;49.012;8.610;2023-04-04T01:04:47;1.80;99.90
25320;DHT22;13256;49.012;8.610;2023-04-04T01:07:14;1.80;99.90
25320;DHT22;13256;49.012;8.610;2023-04-04T01:09:43;1.80;99.90
25320;DHT22;13256;49.012;8.610;2023-04-04T01:12:13;1.70;99.90
25320;DHT22;13256;49.012;8.610;2023-04-04T01:14:40;1.70;99.90
25320;DHT22;13256;49.012;8.610;2023-04-04T01:17:11;1.70;99.90
25320;DHT22;13256;49.012;8.610;2023-04-04T01:22:27;1.60;99.90
25320;DHT22;13256;49.012;8.610;2023-04-04T01:24:57;1.50;99.90
25320;DHT22;13256;49.012;8.610;2023-04-04T01:27:29;1.50;99.90
25320;DHT22;13256;49.012;8.610;2023-04-04T01:30:07;1.60;99.90
25320;DHT22;13256;49.012;8.610;2023-04-04T01:36:05;1.50;99.90
25320;DHT22;13256;49.012;8.610;2023-04-04T01:41:35;1.50;99.90
25320;DHT22;13256;49.012;8.610;2023-04-04T01:44:03;1.40;99.90
25320;DHT22;13256;49.012;8.610;2023-04-04T01:46:30;1.40;99.90
25320;DHT22;13256;49.012;8.610;2023-04-04T01:49:00;1.40;99.90
25320;DHT22;13256;49.012;8.610;2023-04-04T01:51:31;1.40;99.90
25320;DHT22;13256;49.012;8.610;2023-04-04T01:53:58;1.40;99.90
25320;DHT22;13256;49.012;8.610;2023-04-04T01:56:25;1.40;99.90
25320;DHT22;13256;49.012;8.610;2023-04-04T01:58:52;1.40;99.90
25320;DHT22;13256;49.012;8.610;2023-04-04T02:01:19;1.40;99.90
25320;DHT22;13256;49.012;8.610;2023-04-04T02:04:14;1.40;99.90
25320;DHT22;13256;49.012;8.610;2023-04-04T02:06:44;1.30;99.90
25320;DHT22;13256;49.012;8.610;2023-04-04T02:09:11;1.30;99.90
25320;DHT22;13256;49.012;8.610;2023-04-04T02:11:42;1.20;99.90
25320;DHT22;13256;49.012;8.610;2023-04-04T02:14:09;1.20;99.90
25320;DHT22;13256;49.012;8.610;2023-04-04T02:16:35;1.10;99.90
25320;DHT22;13256;49.012;8.610;2023-04-04T02:19:02;1.10;99.90
25320;DHT22;13256;49.012;8.610;2023-04-04T02:21:29;1.10;99.90
25320;DHT22;13256;49.012;8.610;2023-04-04T02:23:58;1.10;99.90
25320;DHT22;13256;49.012;8.610;2023-04-04T02:26:25;1.00;99.90
25320;DHT22;13256;49.012;8.610;2023-04-04T02:28:51;1.00;99.90
25320;DHT22;13256;49.012;8.610;2023-04-04T02:31:19;0.90;99.90
25320;DHT22;13256;49.012;8.610;2023-04-04T02:33:46;0.80;99.90
25320;DHT22;13256;49.012;8.610;2023-04-04T02:36:19;0.80;99.90
25320;DHT22;13256;49.012;8.610;2023-04-04T02:38:54;0.80;99.90
25320;DHT22;13256;49.012;8.610;2023-04-04T02:41:28;0.80;99.90
25320;DHT22;13256;49.012;8.610;2023-04-04T02:43:57;0.80;99.90
25320;DHT22;13256;49.012;8.610;2023-04-04T02:46:23;0.70;99.90
25320;DHT22;13256;49.012;8.610;2023-04-04T02:49:01;0.70;99.90
25320;DHT22;13256;49.012;8.610;2023-04-04T02:51:36;0.70;99.90
25320;DHT22;13256;49.012;8.610;2023-04-04T02:54:05;0.70;99.90
25320;DHT22;13256;49.012;8.610;2023-04-04T02:56:38;0.60;99.90
25320;DHT22;13256;49.012;8.610;2023-04-04T02:59:05;0.70;99.90
25320;DHT22;13256;49.012;8.610;2023-04-04T03:01:34;0.60;99.90
25320;DHT22;13256;49.012;8.610;2023-04-04T03:04:05;0.60;99.90
25320;DHT22;13256;49.012;8.610;2023-04-04T03:06:37;0.60;99.90
25320;DHT22;13256;49.012;8.610;2023-04-04T03:09:06;0.60;99.90
25320;DHT22;13256;49.012;8.610;2023-04-04T03:11:34;0.60;99.90
25320;DHT22;13256;49.012;8.610;2023-04-04T03:14:01;0.60;99.90
25320;DHT22;13256;49.012;8.610;2023-04-04T03:16:38;0.60;99.90
25320;DHT22;13256;49.012;8.610;2023-04-04T03:19:05;0.70;99.90
25320;DHT22;13256;49.012;8.610;2023-04-04T03:21:32;0.60;99.90
25320;DHT22;13256;49.012;8.610;2023-04-04T03:24:03;0.60;99.90
25320;DHT22;13256;49.012;8.610;2023-04-04T03:26:32;0.50;99.90
25320;DHT22;13256;49.012;8.610;2023-04-04T03:28:58;0.50;99.90
25320;DHT22;13256;49.012;8.610;2023-04-04T03:31:28;0.50;99.90
25320;DHT22;13256;49.012;8.610;2023-04-04T03:33:55;0.50;99.90
25320;DHT22;13256;49.012;8.610;2023-04-04T03:36:25;0.50;99.90
25320;DHT22;13256;49.012;8.610;2023-04-04T03:38:57;0.50;99.90
25320;DHT22;13256;49.012;8.610;2023-04-04T03:41:51;0.40;99.90
25320;DHT22;13256;49.012;8.610;2023-04-04T03:44:18;0.40;99.90
25320;DHT22;13256;49.012;8.610;2023-04-04T03:46:47;0.30;99.90
25320;DHT22;13256;49.012;8.610;2023-04-04T03:49:21;0.30;99.90
25320;DHT22;13256;49.012;8.610;2023-04-04T03:51:53;0.20;99.90
25320;DHT22;13256;49.012;8.610;2023-04-04T03:54:22;0.30;99.90
25320;DHT22;13256;49.012;8.610;2023-04-04T03:56:50;0.30;99.90
25320;DHT22;13256;49.012;8.610;2023-04-04T03:59:18;0.30;99.90
25320;DHT22;13256;49.012;8.610;2023-04-04T04:01:45;0.30;99.90
25320;DHT22;13256;49.012;8.610;2023-04-04T04:04:20;0.30;99.90
25320;DHT22;13256;49.012;8.610;2023-04-04T04:06:49;0.20;99.90
25320;DHT22;13256;49.012;8.610;2023-04-04T04:09:16;0.30;99.90
25320;DHT22;13256;49.012;8.610;2023-04-04T04:11:42;0.20;99.90
25320;DHT22;13256;49.012;8.610;2023-04-04T04:14:09;0.20;99.90
25320;DHT22;13256;49.012;8.610;2023-04-04T04:16:40;0.20;99.90
25320;DHT22;13256;49.012;8.610;2023-04-04T04:19:12;0.10;99.90
25320;DHT22;13256;49.012;8.610;2023-04-04T04:21:40;0.10;99.90
25320;DHT22;13256;49.012;8.610;2023-04-04T04:24:12;0.10;99.90
25320;DHT22;13256;49.012;8.610;2023-04-04T04:26:42;0.10;99.90
25320;DHT22;13256;49.012;8.610;2023-04-04T04:29:09;0.10;99.90
25320;DHT22;13256;49.012;8.610;2023-04-04T04:31:36;0.10;99.90
25320;DHT22;13256;49.012;8.610;2023-04-04T04:34:05;0.10;99.90
25320;DHT22;13256;49.012;8.610;2023-04-04T04:36:53;0.10;99.90
25320;DHT22;13256;49.012;8.610;2023-04-04T04:40:09;0.10;99.90
25320;DHT22;13256;49.012;8.610;2023-04-04T04:42:46;0.10;99.90
25320;DHT22;13256;49.012;8.610;2023-04-04T04:45:17;0.10;99.90
25320;DHT22;13256;49.012;8.610;2023-04-04T04:47:57;0.00;99.90
25320;DHT22;13256;49.012;8.610;2023-04-04T04:50:25;0.00;99.90
25320;DHT22;13256;49.012;8.610;2023-04-04T04:52:52;0.00;99.90
25320;DHT22;13256;49.012;8.610;2023-04-04T04:55:19;0.00;99.90
25320;DHT22;13256;49.012;8.610;2023-04-04T04:57:59;0.00;99.90
25320;DHT22;13256;49.012;8.610;2023-04-04T05:00:27;0.00;99.90
25320;DHT22;13256;49.012;8.610;2023-04-04T05:02:54;0.00;99.90
25320;DHT22;13256;49.012;8.610;2023-04-04T05:05:32;0.00;99.90
25320;DHT22;13256;49.012;8.610;2023-04-04T05:08:06;0.00;99.90
25320;DHT22;13256;49.012;8.610;2023-04-04T05:10:39;0.00;99.90
25320;DHT22;13256;49.012;8.610;2023-04-04T05:13:14;0.00;99.90
25320;DHT22;13256;49.012;8.610;2023-04-04T05:15:46;0.00;99.90
25320;DHT22;13256;49.012;8.610;2023-04-04T05:18:13;0.00;99.90
25320;DHT22;13256;49.012;8.610;2023-04-04T05:20:50;0.00;99.90
25320;DHT22;13256;49.012;8.610;2023-04-04T05:23:18;0.00;99.90
25320;DHT22;13256;49.012;8.610;2023-04-04T05:25:50;0.00;99.90
25320;DHT22;13256;49.012;8.610;2023-04-04T05:28:24;0.00;99.90
25320;DHT22;13256;49.012;8.610;2023-04-04T05:30:58;0.00;99.90
25320;DHT22;13256;49.012;8.610;2023-04-04T05:33:27;0.00;99.90
25320;DHT22;13256;49.012;8.610;2023-04-04T05:36:29;0.00;99.90
25320;DHT22;13256;49.012;8.610;2023-04-04T05:39:04;0.10;99.90
25320;DHT22;13256;49.012;8.610;2023-04-04T05:41:35;0.10;99.90
25320;DHT22;13256;49.012;8.610;2023-04-04T05:44:13;0.10;99.90
25320;DHT22;13256;49.012;8.610;2023-04-04T05:46:40;0.10;99.90
25320;DHT22;13256;49.012;8.610;2023-04-04T05:49:07;0.10;99.90
25320;DHT22;13256;49.012;8.610;2023-04-04T05:51:41;0.10;99.90
25320;DHT22;13256;49.012;8.610;2023-04-04T05:54:11;0.20;99.90
25320;DHT22;13256;49.012;8.610;2023-04-04T05:57:29;0.20;99.90
25320;DHT22;13256;49.012;8.610;2023-04-04T05:59:59;0.20;99.90
25320;DHT22;13256;49.012;8.610;2023-04-04T06:02:26;0.20;99.90
25320;DHT22;13256;49.012;8.610;2023-04-04T06:04:58;0.20;99.90
25320;DHT22;13256;49.012;8.610;2023-04-04T06:07:31;0.20;99.90
25320;DHT22;13256;49.012;8.610;2023-04-04T06:09:58;0.20;99.90
25320;DHT22;13256;49.012;8.610;2023-04-04T06:12:54;0.30;99.90
25320;DHT22;13256;49.012;8.610;2023-04-04T06:15:24;0.30;99.90
25320;DHT22;13256;49.012;8.610;2023-04-04T06:17:55;0.40;99.90
25320;DHT22;13256;49.012;8.610;2023-04-04T06:20:25;0.40;99.90
25320;DHT22;13256;49.012;8.610;2023-04-04T06:22:53;0.40;99.90
25320;DHT22;13256;49.012;8.610;2023-04-04T06:25:27;0.50;99.90
25320;DHT22;13256;49.012;8.610;2023-04-04T06:27:57;0.50;99.90
25320;DHT22;13256;49.012;8.610;2023-04-04T06:30:26;0.50;99.90
25320;DHT22;13256;49.012;8.610;2023-04-04T06:33:05;0.60;99.90
25320;DHT22;13256;49.012;8.610;2023-04-04T06:35:36;0.60;99.90
25320;DHT22;13256;49.012;8.610;2023-04-04T06:44:33;0.70;99.90
25320;DHT22;13256;49.012;8.610;2023-04-04T06:52:56;0.90;99.90
25320;DHT22;13256;49.012;8.610;2023-04-04T06:58:20;1.10;99.90
25320;DHT22;13256;49.012;8.610;2023-04-04T07:00:46;1.20;99.90
25320;DHT22;13256;49.012;8.610;2023-04-04T07:06:29;1.40;99.90
25320;DHT22;13256;49.012;8.610;2023-04-04T07:12:01;1.60;99.90
25320;DHT22;13256;49.012;8.610;2023-04-04T07:17:12;1.80;99.90
25320;DHT22;13256;49.012;8.610;2023-04-04T07:20:02;2.00;99.90
25320;DHT22;13256;49.012;8.610;2023-04-04T07:41:26;2.70;99.90
25320;DHT22;13256;49.012;8.610;2023-04-04T07:43:55;2.80;99.90
25320;DHT22;13256;49.012;8.610;2023-04-04T07:57:45;3.60;99.90
25320;DHT22;13256;49.012;8.610;2023-04-04T08:03:24;3.90;99.90
25320;DHT22;13256;49.012;8.610;2023-04-04T08:05:55;4.00;99.90
25320;DHT22;13256;49.012;8.610;2023-04-04T08:08:32;4.20;99.90
25320;DHT22;13256;49.012;8.610;2023-04-04T08:10:59;4.30;99.90
25320;DHT22;13256;49.012;8.610;2023-04-04T08:13:36;4.50;99.90
25320;DHT22;13256;49.012;8.610;2023-04-04T08:16:04;4.60;99.90
25320;DHT22;13256;49.012;8.610;2023-04-04T08:18:31;4.60;99.90
25320;DHT22;13256;49.012;8.610;2023-04-04T08:36:05;5.60;99.90
25320;DHT22;13256;49.012;8.610;2023-04-04T08:39:37;5.70;99.90
25320;DHT22;13256;49.012;8.610;2023-04-04T08:42:35;5.80;99.60
25320;DHT22;13256;49.012;8.610;2023-04-04T08:47:52;6.20;98.30
25320;DHT22;13256;49.012;8.610;2023-04-04T08:50:24;6.40;98.70
25320;DHT22;13256;49.012;8.610;2023-04-04T08:55:48;6.70;97.30
25320;DHT22;13256;49.012;8.610;2023-04-04T08:58:19;6.90;96.50
25320;DHT22;13256;49.012;8.610;2023-04-04T09:00:46;7.00;95.40
25320;DHT22;13256;49.012;8.610;2023-04-04T09:03:24;6.90;95.20
25320;DHT22;13256;49.012;8.610;2023-04-04T09:08:45;7.00;94.60
25320;DHT22;13256;49.012;8.610;2023-04-04T09:11:13;7.20;94.30
25320;DHT22;13256;49.012;8.610;2023-04-04T09:13:51;7.40;93.40
25320;DHT22;13256;49.012;8.610;2023-04-04T09:16:21;7.60;93.00
25320;DHT22;13256;49.012;8.610;2023-04-04T09:19:18;7.80;91.40
25320;DHT22;13256;49.012;8.610;2023-04-04T09:21:54;7.80;91.70
25320;DHT22;13256;49.012;8.610;2023-04-04T09:27:23;8.10;91.30
25320;DHT22;13256;49.012;8.610;2023-04-04T09:32:41;7.90;90.60
25320;DHT22;13256;49.012;8.610;2023-04-04T09:35:18;8.00;90.80
25320;DHT22;13256;49.012;8.610;2023-04-04T09:43:38;8.50;87.80
25320;DHT22;13256;49.012;8.610;2023-04-04T09:46:05;8.30;88.00
25320;DHT22;13256;49.012;8.610;2023-04-04T09:48:34;8.30;87.90
25320;DHT22;13256;49.012;8.610;2023-04-04T09:51:11;8.50;87.00
25320;DHT22;13256;49.012;8.610;2023-04-04T09:53:40;8.70;88.30
25320;DHT22;13256;49.012;8.610;2023-04-04T09:59:06;8.90;84.10
25320;DHT22;13256;49.012;8.610;2023-04-04T10:01:36;9.00;83.90
25320;DHT22;13256;49.012;8.610;2023-04-04T10:04:04;9.10;83.50
25320;DHT22;13256;49.012;8.610;2023-04-04T10:06:35;9.30;85.50
25320;DHT22;13256;49.012;8.610;2023-04-04T10:09:07;9.40;83.00
25320;DHT22;13256;49.012;8.610;2023-04-04T10:11:39;9.50;82.40
25320;DHT22;13256;49.012;8.610;2023-04-04T10:14:08;9.50;79.40
25320;DHT22;13256;49.012;8.610;2023-04-04T10:16:59;9.80;80.40
25320;DHT22;13256;49.012;8.610;2023-04-04T10:19:26;10.10;76.80
25320;DHT22;13256;49.012;8.610;2023-04-04T10:21:59;10.20;79.30
25320;DHT22;13256;49.012;8.610;2023-04-04T10:24:28;10.30;76.40
25320;DHT22;13256;49.012;8.610;2023-04-04T10:26:56;10.40;74.20
25320;DHT22;13256;49.012;8.610;2023-04-04T10:29:27;10.40;75.50
25320;DHT22;13256;49.012;8.610;2023-04-04T10:32:03;10.30;73.70
25320;DHT22;13256;49.012;8.610;2023-04-04T10:59:12;11.00;68.00
25320;DHT22;13256;49.012;8.610;2023-04-04T11:02:01;11.20;68.00
25320;DHT22;13256;49.012;8.610;2023-04-04T11:10:25;12.10;67.40
25320;DHT22;13256;49.012;8.610;2023-04-04T11:12:54;12.50;65.60
25320;DHT22;13256;49.012;8.610;2023-04-04T11:15:55;12.60;64.80
25320;DHT22;13256;49.012;8.610;2023-04-04T11:21:19;12.60;63.50
25320;DHT22;13256;49.012;8.610;2023-04-04T11:28:58;12.50;63.70
25320;DHT22;13256;49.012;8.610;2023-04-04T11:31:27;12.30;63.60
25320;DHT22;13256;49.012;8.610;2023-04-04T11:34:12;12.00;63.80
25320;DHT22;13256;49.012;8.610;2023-04-04T11:36:52;11.90;68.60
25320;DHT22;13256;49.012;8.610;2023-04-04T11:39:29;12.10;67.60
25320;DHT22;13256;49.012;8.610;2023-04-04T11:47:22;12.80;62.80
25320;DHT22;13256;49.012;8.610;2023-04-04T11:49:50;12.70;62.20
25320;DHT22;13256;49.012;8.610;2023-04-04T11:52:21;12.60;62.30
25320;DHT22;13256;49.012;8.610;2023-04-04T11:55:19;12.60;63.70
25320;DHT22;13256;49.012;8.610;2023-04-04T11:57:52;12.70;65.80
25320;DHT22;13256;49.012;8.610;2023-04-04T12:00:30;12.60;64.90
25320;DHT22;13256;49.012;8.610;2023-04-04T12:02:57;12.70;63.60
25320;DHT22;13256;49.012;8.610;2023-04-04T12:05:59;12.70;62.20
25320;DHT22;13256;49.012;8.610;2023-04-04T12:08:27;12.50;62.10
25320;DHT22;13256;49.012;8.610;2023-04-04T12:11:25;12.50;62.10
25320;DHT22;13256;49.012;8.610;2023-04-04T12:14:00;12.70;63.90
25320;DHT22;13256;49.012;8.610;2023-04-04T12:16:34;13.00;62.20
25320;DHT22;13256;49.012;8.610;2023-04-04T12:19:05;13.20;63.40
25320;DHT22;13256;49.012;8.610;2023-04-04T12:21:37;13.30;61.30
25320;DHT22;13256;49.012;8.610;2023-04-04T12:24:25;13.60;63.20
25320;DHT22;13256;49.012;8.610;2023-04-04T12:26:57;13.90;61.60
25320;DHT22;13256;49.012;8.610;2023-04-04T12:29:48;14.00;60.70
25320;DHT22;13256;49.012;8.610;2023-04-04T12:33:02;13.80;62.20
25320;DHT22;13256;49.012;8.610;2023-04-04T12:35:30;13.70;60.80
25320;DHT22;13256;49.012;8.610;2023-04-04T12:38:17;13.80;62.00
25320;DHT22;13256;49.012;8.610;2023-04-04T12:41:17;14.00;60.50
25320;DHT22;13256;49.012;8.610;2023-04-04T12:44:52;13.90;60.90
25320;DHT22;13256;49.012;8.610;2023-04-04T12:47:51;13.80;59.60
25320;DHT22;13256;49.012;8.610;2023-04-04T12:50:56;13.70;59.40
25320;DHT22;13256;49.012;8.610;2023-04-04T12:53:27;13.70;60.80
25320;DHT22;13256;49.012;8.610;2023-04-04T12:59:48;13.80;59.40
25320;DHT22;13256;49.012;8.610;2023-04-04T13:07:00;13.90;58.20
25320;DHT22;13256;49.012;8.610;2023-04-04T13:10:13;13.90;58.40
25320;DHT22;13256;49.012;8.610;2023-04-04T13:13:37;13.80;59.40
25320;DHT22;13256;49.012;8.610;2023-04-04T13:16:33;14.00;58.40
25320;DHT22;13256;49.012;8.610;2023-04-04T13:19:24;14.10;59.20
25320;DHT22;13256;49.012;8.610;2023-04-04T13:22:07;14.20;58.00
25320;DHT22;13256;49.012;8.610;2023-04-04T13:24:53;14.10;59.00
25320;DHT22;13256;49.012;8.610;2023-04-04T13:27:54;13.90;57.40
25320;DHT22;13256;49.012;8.610;2023-04-04T13:30:27;14.10;59.60
25320;DHT22;13256;49.012;8.610;2023-04-04T13:32:58;14.20;60.10
25320;DHT22;13256;49.012;8.610;2023-04-04T13:38:40;14.30;57.00
25320;DHT22;13256;49.012;8.610;2023-04-04T13:41:41;14.40;59.60
25320;DHT22;13256;49.012;8.610;2023-04-04T13:44:28;14.70;58.00
25320;DHT22;13256;49.012;8.610;2023-04-04T13:46:59;15.00;58.40
25320;DHT22;13256;49.012;8.610;2023-04-04T13:49:44;15.00;55.70
25320;DHT22;13256;49.012;8.610;2023-04-04T13:52:41;15.00;58.30
25320;DHT22;13256;49.012;8.610;2023-04-04T13:55:40;14.90;55.90
25320;DHT22;13256;49.012;8.610;2023-04-04T13:58:41;15.10;56.90
25320;DHT22;13256;49.012;8.610;2023-04-04T14:01:48;15.20;57.30
25320;DHT22;13256;49.012;8.610;2023-04-04T14:05:06;15.50;56.40
25320;DHT22;13256;49.012;8.610;2023-04-04T14:08:16;15.20;55.90
25320;DHT22;13256;49.012;8.610;2023-04-04T14:10:46;15.00;57.20
25320;DHT22;13256;49.012;8.610;2023-04-04T14:13:16;15.10;55.40
25320;DHT22;13256;49.012;8.610;2023-04-04T14:18:33;14.70;57.50
25320;DHT22;13256;49.012;8.610;2023-04-04T14:21:33;14.90;57.60
25320;DHT22;13256;49.012;8.610;2023-04-04T14:24:26;14.80;56.00
25320;DHT22;13256;49.012;8.610;2023-04-04T14:27:08;14.50;56.10
25320;DHT22;13256;49.012;8.610;2023-04-04T14:30:15;14.60;56.10
25320;DHT22;13256;49.012;8.610;2023-04-04T14:32:55;14.70;57.20
25320;DHT22;13256;49.012;8.610;2023-04-04T14:35:44;14.60;57.20
25320;DHT22;13256;49.012;8.610;2023-04-04T14:39:01;14.60;57.10
25320;DHT22;13256;49.012;8.610;2023-04-04T14:41:30;14.50;57.00
25320;DHT22;13256;49.012;8.610;2023-04-04T14:44:01;14.40;57.80
25320;DHT22;13256;49.012;8.610;2023-04-04T14:46:38;14.50;57.40
25320;DHT22;13256;49.012;8.610;2023-04-04T14:50:16;14.30;56.60
25320;DHT22;13256;49.012;8.610;2023-04-04T14:53:07;14.20;55.80
25320;DHT22;13256;49.012;8.610;2023-04-04T14:55:59;13.80;56.80
25320;DHT22;13256;49.012;8.610;2023-04-04T14:58:37;13.50;58.10
25320;DHT22;13256;49.012;8.610;2023-04-04T15:02:16;13.40;57.00
25320;DHT22;13256;49.012;8.610;2023-04-04T15:04:44;13.30;59.90
25320;DHT22;13256;49.012;8.610;2023-04-04T15:07:45;13.60;60.60
25320;DHT22;13256;49.012;8.610;2023-04-04T15:10:48;13.70;56.60
25320;DHT22;13256;49.012;8.610;2023-04-04T15:14:25;13.80;57.70
25320;DHT22;13256;49.012;8.610;2023-04-04T15:17:02;13.30;59.10
25320;DHT22;13256;49.012;8.610;2023-04-04T15:22:54;13.30;58.90
25320;DHT22;13256;49.012;8.610;2023-04-04T15:27:31;13.20;60.50
25320;DHT22;13256;49.012;8.610;2023-04-04T15:30:06;13.30;59.30
25320;DHT22;13256;49.012;8.610;2023-04-04T15:32:36;13.30;58.60
25320;DHT22;13256;49.012;8.610;2023-04-04T15:35:46;13.40;59.70
25320;DHT22;13256;49.012;8.610;2023-04-04T15:38:50;13.30;58.60
25320;DHT22;13256;49.012;8.610;2023-04-04T15:41:44;13.10;57.10
25320;DHT22;13256;49.012;8.610;2023-04-04T15:44:11;12.60;59.00
25320;DHT22;13256;49.012;8.610;2023-04-04T15:46:38;12.50;59.50
25320;DHT22;13256;49.012;8.610;2023-04-04T15:49:10;12.30;60.60
25320;DHT22;13256;49.012;8.610;2023-04-04T15:51:37;12.00;61.80
25320;DHT22;13256;49.012;8.610;2023-04-04T15:54:05;11.80;61.00
25320;DHT22;13256;49.012;8.610;2023-04-04T15:56:35;11.60;62.20
25320;DHT22;13256;49.012;8.610;2023-04-04T15:59:06;11.50;61.80
25320;DHT22;13256;49.012;8.610;2023-04-04T16:01:35;11.40;64.00
25320;DHT22;13256;49.012;8.610;2023-04-04T16:04:05;11.40;64.30
25320;DHT22;13256;49.012;8.610;2023-04-04T16:06:48;11.30;62.00
25320;DHT22;13256;49.012;8.610;2023-04-04T16:12:20;11.00;62.80
25320;DHT22;13256;49.012;8.610;2023-04-04T16:17:37;10.70;64.10
25320;DHT22;13256;49.012;8.610;2023-04-04T16:23:07;10.40;64.60
25320;DHT22;13256;49.012;8.610;2023-04-04T16:25:36;10.30;64.30
25320;DHT22;13256;49.012;8.610;2023-04-04T16:28:06;10.20;64.80
25320;DHT22;13256;49.012;8.610;2023-04-04T16:30:33;10.10;65.50
25320;DHT22;13256;49.012;8.610;2023-04-04T16:33:12;10.10;65.60
25320;DHT22;13256;49.012;8.610;2023-04-04T16:35:42;10.00;65.80
25320;DHT22;13256;49.012;8.610;2023-04-04T16:38:09;9.90;66.70
25320;DHT22;13256;49.012;8.610;2023-04-04T16:40:35;9.80;67.10
25320;DHT22;13256;49.012;8.610;2023-04-04T16:43:09;9.80;67.20
25320;DHT22;13256;49.012;8.610;2023-04-04T16:45:38;9.80;66.30
25320;DHT22;13256;49.012;8.610;2023-04-04T16:48:05;9.70;66.80
25320;DHT22;13256;49.012;8.610;2023-04-04T16:50:31;9.70;67.80
25320;DHT22;13256;49.012;8.610;2023-04-04T16:53:04;9.70;67.00
25320;DHT22;13256;49.012;8.610;2023-04-04T16:55:56;9.70;68.10
25320;DHT22;13256;49.012;8.610;2023-04-04T16:58:25;9.60;67.70
25320;DHT22;13256;49.012;8.610;2023-04-04T17:00:57;9.70;67.20
25320;DHT22;13256;49.012;8.610;2023-04-04T17:03:27;9.60;67.70
25320;DHT22;13256;49.012;8.610;2023-04-04T17:05:55;9.60;67.70
25320;DHT22;13256;49.012;8.610;2023-04-04T17:08:30;9.50;67.10
25320;DHT22;13256;49.012;8.610;2023-04-04T17:11:09;9.40;67.70
25320;DHT22;13256;49.012;8.610;2023-04-04T17:14:08;9.40;68.80
25320;DHT22;13256;49.012;8.610;2023-04-04T17:20:12;9.30;68.00
25320;DHT22;13256;49.012;8.610;2023-04-04T17:23:09;9.20;68.10
25320;DHT22;13256;49.012;8.610;2023-04-04T17:26:24;9.10;69.50
25320;DHT22;13256;49.012;8.610;2023-04-04T17:29:15;9.10;69.10
25320;DHT22;13256;49.012;8.610;2023-04-04T17:32:31;9.00;68.00
25320;DHT22;13256;49.012;8.610;2023-04-04T17:35:33;8.90;69.10
25320;DHT22;13256;49.012;8.610;2023-04-04T19:10:07;6.80;78.70
25320;DHT22;13256;49.012;8.610;2023-04-04T19:15:33;6.70;79.20
25320;DHT22;13256;49.012;8.610;2023-04-04T19:18:00;6.60;80.50
25320;DHT22;13256;49.012;8.610;2023-04-04T19:20:28;6.60;80.20
25320;DHT22;13256;49.012;8.610;2023-04-04T19:23:06;6.50;81.00
25320;DHT22;13256;49.012;8.610;2023-04-04T19:25:32;6.40;80.80
25320;DHT22;13256;49.012;8.610;2023-04-04T19:31:07;6.30;82.20
25320;DHT22;13256;49.012;8.610;2023-04-04T19:36:27;6.10;82.80
25320;DHT22;13256;49.012;8.610;2023-04-04T19:42:09;5.90;85.00
25320;DHT22;13256;49.012;8.610;2023-04-04T19:44:39;5.90;85.70
25320;DHT22;13256;49.012;8.610;2023-04-04T19:47:32;5.80;86.50
25320;DHT22;13256;49.012;8.610;2023-04-04T19:49:59;5.80;86.50
25320;DHT22;13256;49.012;8.610;2023-04-04T19:55:35;5.80;85.00
25320;DHT22;13256;49.012;8.610;2023-04-04T19:58:04;5.80;85.70
25320;DHT22;13256;49.012;8.610;2023-04-04T20:00:49;5.80;84.80
25320;DHT22;13256;49.012;8.610;2023-04-04T20:03:31;5.70;85.40
25320;DHT22;13256;49.012;8.610;2023-04-04T20:06:28;5.60;86.30
25320;DHT22;13256;49.012;8.610;2023-04-04T20:09:22;5.60;87.20
25320;DHT22;13256;49.012;8.610;2023-04-04T20:11:52;5.50;87.90
25320;DHT22;13256;49.012;8.610;2023-04-04T20:14:19;5.40;88.40
25320;DHT22;13256;49.012;8.610;2023-04-04T20:16:51;5.30;89.20
25320;DHT22;13256;49.012;8.610;2023-04-04T20:19:20;5.30;89.60
25320;DHT22;13256;49.012;8.610;2023-04-04T20:24:47;5.20;90.70
25320;DHT22;13256;49.012;8.610;2023-04-04T20:33:30;4.90;91.20
25320;DHT22;13256;49.012;8.610;2023-04-04T20:41:58;4.80;92.30
25320;DHT22;13256;49.012;8.610;2023-04-04T21:01:38;4.60;94.80
25320;DHT22;13256;49.012;8.610;2023-04-04T21:04:24;4.40;95.50
25320;DHT22;13256;49.012;8.610;2023-04-04T21:06:52;4.30;96.40
25320;DHT22;13256;49.012;8.610;2023-04-04T21:09:23;4.30;97.90
25320;DHT22;13256;49.012;8.610;2023-04-04T21:14:57;3.90;99.90
25320;DHT22;13256;49.012;8.610;2023-04-04T21:21:15;3.80;99.90
25320;DHT22;13256;49.012;8.610;2023-04-04T21:23:58;3.60;99.90
25320;DHT22;13256;49.012;8.610;2023-04-04T21:26:33;3.50;99.90
25320;DHT22;13256;49.012;8.610;2023-04-04T21:37:50;3.30;99.90
25320;DHT22;13256;49.012;8.610;2023-04-04T21:40:24;3.20;99.90
25320;DHT22;13256;49.012;8.610;2023-04-04T21:42:53;3.20;99.90
25320;DHT22;13256;49.012;8.610;2023-04-04T21:45:29;3.10;99.90
25320;DHT22;13256;49.012;8.610;2023-04-04T21:47:56;3.10;99.90
25320;DHT22;13256;49.012;8.610;2023-04-04T21:50:26;3.10;99.90
25320;DHT22;13256;49.012;8.610;2023-04-04T21:52:55;3.00;99.90
25320;DHT22;13256;49.012;8.610;2023-04-04T21:55:22;3.00;99.90
25320;DHT22;13256;49.012;8.610;2023-04-04T21:57:49;2.90;99.90
25320;DHT22;13256;49.012;8.610;2023-04-04T22:00:21;2.90;99.90
25320;DHT22;13256;49.012;8.610;2023-04-04T22:02:47;2.90;99.90
25320;DHT22;13256;49.012;8.610;2023-04-04T22:08:10;2.70;99.90
25320;DHT22;13256;49.012;8.610;2023-04-04T22:10:39;2.60;99.90
25320;DHT22;13256;49.012;8.610;2023-04-04T22:13:19;2.60;99.90
25320;DHT22;13256;49.012;8.610;2023-04-04T22:18:55;2.50;99.90
25320;DHT22;13256;49.012;8.610;2023-04-04T22:21:26;2.50;99.90